Time;durP1;ratioP1;P1;durP2;ratioP2;P2;SDS_P1;SDS_P2;PMS_P1;PMS_P2;Temp;Humidity;BMP_temperature;BMP_pressure;BME280_temperature;BME280_humidity;BME280_pressure;Samples;Min_cycle;Max_cycle;Signal;HPM_P1;HPM_P2
2022/11/29 00:01:49;;;;;;;28.47;18.47;;;;;;;6.81;100.00;98950.34;5093305;28;20643;-80
2022/11/29 00:04:21;;;;;;;28.10;18.83;;;;;;;6.78;100.00;98945.25;5099724;28;20303;-80
2022/11/29 00:06:50;;;;;;;30.00;18.97;;;;;;;6.76;100.00;98952.38;5093853;28;20203;-80
2022/11/29 00:09:18;;;;;;;27.97;18.33;;;;;;;6.80;100.00;98951.25;5093905;28;20231;-80
2022/11/29 00:14:32;;;;;;;28.43;18.40;;;;;;;6.78;100.00;98952.28;5094508;28;20188;-80
2022/11/29 00:17:03;;;;;;;28.10;18.60;;;;;;;6.66;100.00;98947.63;5092918;28;20212;-81
2022/11/29 00:19:33;;;;;;;28.13;18.07;;;;;;;6.73;100.00;98943.75;5053238;28;20205;-80
2022/11/29 00:22:03;;;;;;;27.17;17.73;;;;;;;6.75;100.00;98947.16;5048606;28;20201;-80
2022/11/29 00:24:32;;;;;;;28.53;19.23;;;;;;;6.78;100.00;98947.88;5045619;28;20205;-80
2022/11/29 00:27:01;;;;;;;29.83;19.43;;;;;;;6.80;100.00;98939.88;5050665;28;20197;-80
2022/11/29 00:29:30;;;;;;;30.27;19.57;;;;;;;6.80;100.00;98938.09;5018550;28;20189;-80
2022/11/29 00:31:59;;;;;;;30.20;19.27;;;;;;;6.76;100.00;98949.75;5044939;28;20201;-80
2022/11/29 00:34:28;;;;;;;32.03;19.47;;;;;;;6.67;100.00;98937.06;5049390;28;20197;-80
2022/11/29 00:36:58;;;;;;;31.93;19.23;;;;;;;6.80;100.00;98942.53;5050834;28;20258;-80
2022/11/29 00:39:27;;;;;;;28.30;19.03;;;;;;;6.76;100.00;98941.00;5052975;28;20189;-80
2022/11/29 00:41:56;;;;;;;35.47;20.93;;;;;;;6.70;100.00;98946.56;5050901;28;20246;-80
2022/11/29 00:44:24;;;;;;;31.47;18.73;;;;;;;6.81;100.00;98939.81;5076773;28;20256;-80
2022/11/29 00:46:54;;;;;;;30.67;19.50;;;;;;;6.80;100.00;98947.78;5095117;28;20248;-80
2022/11/29 00:49:24;;;;;;;32.00;20.27;;;;;;;6.73;100.00;98943.75;5091962;28;20249;-80
2022/11/29 00:51:53;;;;;;;33.43;19.93;;;;;;;6.81;100.00;98941.59;5095033;28;20191;-80
2022/11/29 00:54:27;;;;;;;30.37;19.57;;;;;;;6.79;100.00;98944.31;5094999;28;20200;-80
2022/11/29 00:56:56;;;;;;;34.27;20.33;;;;;;;6.96;100.00;98950.47;5089644;28;20250;-80
2022/11/29 00:59:25;;;;;;;30.30;19.23;;;;;;;6.80;100.00;98940.75;5026389;28;20197;-80
2022/11/29 01:01:55;;;;;;;34.40;19.60;;;;;;;6.80;100.00;98950.41;5026600;28;20228;-80
2022/11/29 01:04:23;;;;;;;33.87;20.20;;;;;;;6.81;100.00;98944.22;5022983;28;20225;-80
2022/11/29 01:06:52;;;;;;;34.10;20.37;;;;;;;6.88;100.00;98950.88;5029111;28;20189;-80
2022/11/29 01:09:23;;;;;;;30.93;20.13;;;;;;;6.83;100.00;98951.09;5001271;28;20200;-80
2022/11/29 01:11:53;;;;;;;31.50;19.87;;;;;;;6.85;100.00;98951.88;5032418;28;20194;-80
2022/11/29 01:14:24;;;;;;;31.67;19.77;;;;;;;6.89;100.00;98952.56;5023040;28;20202;-81
2022/11/29 01:16:52;;;;;;;34.27;20.63;;;;;;;6.85;100.00;98953.66;5039435;28;20216;-80
2022/11/29 01:19:21;;;;;;;34.27;21.23;;;;;;;6.84;100.00;98957.22;5090000;28;20278;-80
2022/11/29 01:21:52;;;;;;;34.13;20.43;;;;;;;6.88;100.00;98964.88;5094372;27;20199;-80
2022/11/29 01:24:21;;;;;;;35.20;21.17;;;;;;;6.73;100.00;98957.78;5085870;28;20404;-80
2022/11/29 01:26:53;;;;;;;34.60;21.97;;;;;;;6.78;100.00;98958.41;5094543;28;20192;-81
2022/11/29 01:29:22;;;;;;;34.73;20.43;;;;;;;6.83;100.00;98966.03;5090419;28;20219;-80
2022/11/29 01:31:52;;;;;;;36.30;20.20;;;;;;;6.81;100.00;98970.53;5091372;28;20188;-80
2022/11/29 01:34:20;;;;;;;35.57;21.10;;;;;;;6.79;100.00;98960.09;5090669;28;20192;-80
2022/11/29 01:36:49;;;;;;;34.70;21.50;;;;;;;6.80;100.00;98964.44;5089658;28;20219;-81
2022/11/29 01:39:17;;;;;;;36.90;22.00;;;;;;;6.80;100.00;98967.06;5073125;28;20651;-81
2022/11/29 01:41:46;;;;;;;37.90;22.60;;;;;;;6.81;100.00;98965.28;5090134;28;20227;-81
2022/11/29 01:44:52;;;;;;;35.23;21.00;;;;;;;6.78;100.00;98970.72;5090636;28;20245;-80
2022/11/29 01:47:22;;;;;;;33.83;19.87;;;;;;;6.83;100.00;98961.63;5112347;28;20259;-80
2022/11/29 01:49:53;;;;;;;39.83;21.77;;;;;;;6.83;100.00;98968.69;5108346;28;20248;-81
2022/11/29 01:52:23;;;;;;;35.77;21.00;;;;;;;6.91;100.00;98968.28;5104090;28;20195;-80
2022/11/29 01:54:58;;;;;;;35.17;20.43;;;;;;;6.75;100.00;98971.69;5109878;28;20194;-80
2022/11/29 01:57:29;;;;;;;36.80;20.30;;;;;;;6.87;100.00;98970.22;5108878;28;20298;-81
2022/11/29 02:00:07;;;;;;;34.60;20.70;;;;;;;6.84;100.00;98965.09;5101316;28;20217;-80
2022/11/29 02:02:42;;;;;;;35.80;20.27;;;;;;;6.83;100.00;98960.78;5109390;28;20198;-80
2022/11/29 02:05:13;;;;;;;35.17;21.00;;;;;;;6.80;100.00;98963.56;5103376;28;20222;-80
2022/11/29 02:07:46;;;;;;;31.87;19.50;;;;;;;6.93;100.00;98955.88;5095767;27;20199;-80
2022/11/29 02:10:15;;;;;;;35.93;20.17;;;;;;;6.84;100.00;98958.06;5092195;28;20200;-81
2022/11/29 02:12:54;;;;;;;32.30;19.30;;;;;;;6.82;100.00;98965.19;5093135;28;20191;-81
2022/11/29 02:15:33;;;;;;;34.80;20.57;;;;;;;6.85;100.00;98965.06;5092764;28;20646;-80
2022/11/29 02:18:08;;;;;;;35.80;20.43;;;;;;;6.91;100.00;98971.75;5068364;28;20216;-81
2022/11/29 02:21:09;;;;;;;32.97;19.57;;;;;;;6.83;100.00;98961.63;5068566;28;20200;-80
2022/11/29 02:24:06;;;;;;;33.33;19.17;;;;;;;6.81;100.00;98962.66;5068479;28;20204;-80
2022/11/29 02:26:57;;;;;;;32.20;18.60;;;;;;;6.83;100.00;98968.69;5069052;28;20196;-81
2022/11/29 02:29:46;;;;;;;32.33;18.83;;;;;;;6.84;100.00;98965.97;5065140;28;20616;-81
2022/11/29 02:33:03;;;;;;;32.87;18.47;;;;;;;6.87;100.00;98970.22;5068245;28;20197;-81
2022/11/29 02:36:04;;;;;;;29.73;18.10;;;;;;;6.84;100.00;98973.84;5011126;28;20264;-81
2022/11/29 02:39:10;;;;;;;30.70;18.07;;;;;;;6.84;100.00;98968.59;5058759;28;20245;-80
2022/11/29 02:41:51;;;;;;;25.23;16.77;;;;;;;6.89;100.00;98973.63;5020659;28;20192;-80
2022/11/29 02:44:40;;;;;;;25.40;15.53;;;;;;;6.87;100.00;98970.22;5089340;28;20260;-81
2022/11/29 02:47:25;;;;;;;24.10;16.10;;;;;;;6.82;100.00;98978.34;5091590;28;20226;-81
2022/11/29 02:50:17;;;;;;;24.63;15.57;;;;;;;6.87;100.00;98970.22;5091253;28;20199;-80
2022/11/29 02:53:00;;;;;;;27.70;16.67;;;;;;;6.84;100.00;98973.84;5092717;28;20192;-81
2022/11/29 02:55:36;;;;;;;26.70;16.53;;;;;;;6.82;100.00;98983.63;5092162;28;20203;-81
2022/11/29 02:58:14;;;;;;;29.47;18.07;;;;;;;6.82;100.00;98967.81;5089351;28;20216;-81
2022/11/29 03:00:52;;;;;;;29.50;17.90;;;;;;;6.90;100.00;98980.59;5090436;28;20187;-81
2022/11/29 03:03:27;;;;;;;31.63;18.60;;;;;;;6.91;100.00;98979.66;5074133;28;20238;-80
2022/11/29 03:06:07;;;;;;;30.77;18.93;;;;;;;6.92;100.00;98978.72;5089718;28;20251;-80
2022/11/29 03:08:49;;;;;;;30.93;18.87;;;;;;;6.91;100.00;98986.72;5092484;28;20196;-81
2022/11/29 03:11:27;;;;;;;35.03;19.30;;;;;;;6.97;100.00;98975.88;5092455;28;20198;-80
2022/11/29 03:14:08;;;;;;;29.93;17.80;;;;;;;7.02;100.00;98989.63;5089702;28;20196;-81
2022/11/29 03:16:46;;;;;;;28.50;17.20;;;;;;;7.00;100.00;98981.81;5049928;28;20193;-80
2022/11/29 03:19:33;;;;;;;27.67;17.37;;;;;;;6.95;100.00;98988.25;5047963;28;20330;-80
2022/11/29 03:22:11;;;;;;;31.43;16.97;;;;;;;7.01;100.00;98991.41;5030780;28;20354;-81
2022/11/29 03:24:54;;;;;;;27.57;16.50;;;;;;;6.92;100.00;98994.53;5045732;28;20201;-80
2022/11/29 03:27:32;;;;;;;27.33;17.17;;;;;;;6.97;100.00;99002.19;5006135;28;20416;-81
2022/11/29 03:30:06;;;;;;;29.70;17.30;;;;;;;6.93;100.00;99000.63;5005066;28;20201;-80
2022/11/29 03:32:42;;;;;;;31.73;18.10;;;;;;;6.85;100.00;98991.38;5010431;28;20654;-81
2022/11/29 03:35:17;;;;;;;30.80;18.37;;;;;;;6.84;100.00;98994.91;5002662;28;20197;-80
2022/11/29 03:37:55;;;;;;;30.83;18.53;;;;;;;6.87;100.00;99000.03;5028319;28;20212;-80
2022/11/29 03:40:33;;;;;;;29.67;18.40;;;;;;;6.98;100.00;98993.38;4982687;28;20189;-80
2022/11/29 03:43:08;;;;;;;32.60;19.33;;;;;;;6.93;100.00;99005.91;5022321;28;20201;-80
2022/11/29 03:45:44;;;;;;;32.20;17.47;;;;;;;6.88;100.00;99011.41;5040930;28;20290;-80
2022/11/29 03:48:18;;;;;;;27.73;16.77;;;;;;;6.83;100.00;99009.00;5047699;28;20690;-81
2022/11/29 03:50:53;;;;;;;29.30;17.37;;;;;;;6.89;100.00;99015.75;5054168;28;20235;-81
2022/11/29 03:53:28;;;;;;;26.60;16.60;;;;;;;6.89;100.00;99006.06;5052270;28;20316;-81
2022/11/29 03:56:00;;;;;;;29.73;17.33;;;;;;;6.75;100.00;99008.53;5048024;28;20644;-81
2022/11/29 03:58:39;;;;;;;29.53;16.83;;;;;;;6.94;100.00;99015.50;5044963;28;20229;-81
2022/11/29 04:01:33;;;;;;;26.83;16.43;;;;;;;6.89;100.00;99013.97;5045694;28;20217;-80
2022/11/29 04:04:24;;;;;;;24.47;16.03;;;;;;;6.96;100.00;99011.03;5045868;28;20205;-81
2022/11/29 04:07:07;;;;;;;28.13;16.63;;;;;;;6.94;100.00;99012.88;5078198;28;20249;-80
2022/11/29 04:09:55;;;;;;;26.87;17.00;;;;;;;6.88;100.00;99011.41;5092777;28;20677;-81
2022/11/29 04:13:01;;;;;;;26.93;16.80;;;;;;;6.87;100.00;99020.25;5097064;28;20652;-80
2022/11/29 04:16:13;;;;;;;24.13;16.33;;;;;;;6.96;100.00;99009.25;5095854;28;20191;-80
2022/11/29 04:19:12;;;;;;;24.90;15.83;;;;;;;6.99;100.00;99016.97;5093849;28;20222;-80
2022/11/29 04:22:15;;;;;;;24.27;16.57;;;;;;;6.83;100.00;99009.00;5093992;28;20199;-80
2022/11/29 04:25:14;;;;;;;24.07;15.80;;;;;;;6.84;100.00;99018.59;5095271;28;20192;-80
2022/11/29 04:28:10;;;;;;;23.63;15.47;;;;;;;6.90;100.00;99025.34;5095413;28;20630;-80
2022/11/29 04:30:53;;;;;;;23.67;15.10;;;;;;;6.83;100.00;99026.59;5096305;28;20203;-80
2022/11/29 04:33:56;;;;;;;23.30;15.63;;;;;;;6.94;100.00;99026.03;5095130;28;20192;-80
2022/11/29 04:36:42;;;;;;;21.83;15.23;;;;;;;6.98;100.00;99024.97;5085423;28;20195;-80
2022/11/29 04:39:45;;;;;;;20.37;14.00;;;;;;;6.93;100.00;99027.81;5047200;28;20282;-81
2022/11/29 04:42:49;;;;;;;23.27;14.80;;;;;;;6.98;100.00;99033.72;5037986;28;20680;-81
2022/11/29 04:45:55;;;;;;;21.07;14.13;;;;;;;6.98;100.00;99038.13;5053014;28;20226;-80
2022/11/29 04:48:43;;;;;;;21.00;14.13;;;;;;;7.01;100.00;99044.06;4979510;28;20254;-80
2022/11/29 04:51:22;;;;;;;21.77;13.83;;;;;;;6.96;100.00;99043.47;5022501;28;20185;-81
2022/11/29 04:53:58;;;;;;;21.33;14.00;;;;;;;7.02;100.00;99045.78;5052287;28;20220;-80
2022/11/29 04:56:36;;;;;;;22.80;14.40;;;;;;;6.99;100.00;99043.31;5057778;28;20189;-80
2022/11/29 04:59:18;;;;;;;21.53;14.10;;;;;;;7.05;100.00;99052.69;5058770;28;20249;-80
2022/11/29 05:01:59;;;;;;;25.70;16.63;;;;;;;6.96;100.00;99054.00;5094930;28;20253;-81
2022/11/29 05:04:41;;;;;;;24.77;16.40;;;;;;;7.01;100.00;99051.13;5093788;28;20251;-80
2022/11/29 05:07:19;;;;;;;24.30;16.00;;;;;;;6.92;100.00;99060.34;5090794;28;20230;-81
2022/11/29 05:10:03;;;;;;;24.53;15.50;;;;;;;7.05;100.00;99052.69;5091988;28;20210;-81
2022/11/29 05:12:38;;;;;;;25.43;15.27;;;;;;;6.97;100.00;99066.25;5094445;28;20198;-80
2022/11/29 05:15:32;;;;;;;26.17;16.30;;;;;;;6.99;100.00;99061.75;5089240;28;20255;-81
2022/11/29 05:18:16;;;;;;;23.57;16.13;;;;;;;6.98;100.00;99065.31;5094086;28;20212;-81
2022/11/29 05:20:53;;;;;;;26.63;16.80;;;;;;;7.04;100.00;99061.50;5067661;28;20246;-81
2022/11/29 05:23:40;;;;;;;26.93;17.20;;;;;;;6.85;100.00;99072.97;5069455;28;20204;-80
2022/11/29 05:26:15;;;;;;;25.77;17.00;;;;;;;6.89;100.00;99066.63;5031193;28;20205;-81
2022/11/29 05:28:55;;;;;;;23.70;14.97;;;;;;;6.90;100.00;99070.09;5030911;28;20193;-80
2022/11/29 05:31:53;;;;;;;20.70;14.07;;;;;;;7.06;100.00;99067.56;5027250;28;20190;-81
2022/11/29 05:34:33;;;;;;;18.80;13.13;;;;;;;7.04;100.00;99077.28;5032270;28;20189;-80
2022/11/29 05:37:19;;;;;;;18.63;12.70;;;;;;;7.03;100.00;99071.19;5024788;28;20208;-81
2022/11/29 05:40:14;;;;;;;18.73;11.93;;;;;;;6.97;100.00;99079.41;5062516;28;20246;-81
2022/11/29 05:43:12;;;;;;;16.63;11.20;;;;;;;6.95;100.00;99077.75;5055573;28;20196;-81
2022/11/29 05:45:45;;;;;;;16.40;11.57;;;;;;;6.96;100.00;99082.13;5070168;28;20253;-81
2022/11/29 05:48:25;;;;;;;18.37;12.10;;;;;;;6.91;100.00;99086.75;5071312;28;20200;-81
2022/11/29 05:51:06;;;;;;;15.50;11.23;;;;;;;6.96;100.00;99090.03;5079360;28;20195;-80
2022/11/29 05:53:48;;;;;;;15.07;10.53;;;;;;;6.92;100.00;99089.31;5092085;28;20245;-80
2022/11/29 05:56:26;;;;;;;16.83;12.03;;;;;;;6.95;100.00;99081.28;5093405;28;20192;-80
2022/11/29 05:59:01;;;;;;;19.30;13.23;;;;;;;7.00;100.00;99078.38;5094775;27;20222;-80
2022/11/29 06:01:36;;;;;;;15.60;11.10;;;;;;;6.98;100.00;99085.53;5093600;28;20649;-81
2022/11/29 06:04:10;;;;;;;15.40;11.07;;;;;;;6.98;100.00;99083.75;5093464;28;20653;-81
2022/11/29 06:06:47;;;;;;;16.60;11.03;;;;;;;7.27;100.00;99098.06;5054258;28;20195;-80
2022/11/29 06:09:23;;;;;;;16.57;11.13;;;;;;;7.06;100.00;99092.09;5093284;28;20188;-81
2022/11/29 06:11:57;;;;;;;17.50;12.23;;;;;;;6.98;100.00;99094.28;5091574;28;20199;-80
2022/11/29 06:14:49;;;;;;;16.47;11.77;;;;;;;7.02;100.00;99105.50;5085805;28;20199;-81
2022/11/29 06:17:39;;;;;;;15.60;11.20;;;;;;;7.08;100.00;99102.56;5093427;28;20710;-80
2022/11/29 06:20:23;;;;;;;15.57;10.90;;;;;;;6.92;100.00;99107.72;5050877;28;20302;-80
2022/11/29 06:23:05;;;;;;;16.73;11.40;;;;;;;6.95;100.00;99101.44;5041481;28;20243;-80
2022/11/29 06:25:52;;;;;;;17.30;11.97;;;;;;;7.01;100.00;99112.53;4988962;28;20193;-80
2022/11/29 06:28:32;;;;;;;16.73;11.43;;;;;;;6.96;100.00;99111.94;5048505;28;20254;-81
2022/11/29 06:31:09;;;;;;;17.93;12.73;;;;;;;6.98;100.00;99111.84;5047991;28;20192;-80
2022/11/29 06:33:48;;;;;;;20.50;13.00;;;;;;;7.03;100.00;99115.09;5049245;28;20275;-81
2022/11/29 06:36:21;;;;;;;21.70;13.43;;;;;;;7.05;100.00;99119.38;5050636;28;20203;-80
2022/11/29 06:38:51;;;;;;;20.27;13.37;;;;;;;7.03;100.00;99128.25;5081765;28;20261;-81
2022/11/29 06:41:23;;;;;;;22.37;13.97;;;;;;;6.79;100.00;99130.34;5053371;28;20332;-80
2022/11/29 06:43:52;;;;;;;21.13;12.80;;;;;;;6.62;100.00;99120.63;5009729;28;20734;-81
2022/11/29 06:46:33;;;;;;;23.43;13.67;;;;;;;6.63;100.00;99135.47;5010831;28;20208;-81
2022/11/29 06:49:09;;;;;;;22.97;13.87;;;;;;;6.50;100.00;99132.59;5008055;28;20511;-80
2022/11/29 06:51:49;;;;;;;24.33;14.93;;;;;;;6.54;100.00;99135.94;4960831;28;20198;-80
2022/11/29 06:54:30;;;;;;;25.03;15.23;;;;;;;6.68;100.00;99141.41;5009554;28;20209;-80
2022/11/29 06:57:05;;;;;;;24.80;14.40;;;;;;;6.78;100.00;99137.38;5008661;28;20300;-80
2022/11/29 06:59:49;;;;;;;23.67;14.40;;;;;;;6.87;100.00;99144.84;5038947;28;20224;-81
2022/11/29 07:02:45;;;;;;;26.77;16.03;;;;;;;6.91;100.00;99144.66;5070873;28;20188;-80
2022/11/29 07:05:21;;;;;;;24.20;14.40;;;;;;;6.91;100.00;99153.41;5066944;28;20247;-81
2022/11/29 07:07:51;;;;;;;25.90;15.63;;;;;;;6.93;100.00;99148.94;5068739;28;20205;-81
2022/11/29 07:10:22;;;;;;;28.50;16.00;;;;;;;6.98;100.00;99154.84;5089808;28;20198;-81
2022/11/29 07:12:56;;;;;;;27.47;15.73;;;;;;;6.93;100.00;99153.34;5091641;28;20203;-81
2022/11/29 07:15:28;;;;;;;28.50;16.70;;;;;;;7.00;100.00;99160.03;5085172;28;20199;-81
2022/11/29 07:18:18;;;;;;;27.47;16.03;;;;;;;7.01;100.00;99154.66;5094101;28;20274;-80
2022/11/29 07:20:59;;;;;;;25.77;16.00;;;;;;;6.99;100.00;99160.94;5090841;28;20275;-81
2022/11/29 07:23:35;;;;;;;25.13;15.03;;;;;;;7.03;100.00;99171.25;5051366;28;20254;-80
2022/11/29 07:26:20;;;;;;;26.27;15.83;;;;;;;7.13;100.00;99167.22;5050475;28;20208;-80
2022/11/29 07:29:03;;;;;;;25.77;15.27;;;;;;;7.11;100.00;99162.97;5050561;28;20204;-81
2022/11/29 07:31:45;;;;;;;28.17;16.13;;;;;;;7.06;100.00;99165.84;5046660;28;20242;-81
2022/11/29 07:34:22;;;;;;;29.20;15.60;;;;;;;7.06;100.00;99165.00;5055864;28;20699;-82
2022/11/29 07:37:00;;;;;;;27.07;15.80;;;;;;;7.25;100.00;99173.69;5052624;28;20243;-81
2022/11/29 07:39:41;;;;;;;30.03;16.80;;;;;;;7.16;100.00;99176.78;4990816;28;20219;-81
2022/11/29 07:42:18;;;;;;;30.13;17.60;;;;;;;7.13;100.00;99176.91;5035352;28;20185;-81
2022/11/29 07:45:01;;;;;;;29.43;18.40;;;;;;;7.13;100.00;99175.13;5052764;28;20197;-81
2022/11/29 07:47:31;;;;;;;33.17;18.80;;;;;;;7.21;100.00;99187.06;5050899;28;20186;-81
2022/11/29 07:50:03;;;;;;;33.67;17.73;;;;;;;7.24;100.00;99181.63;5051924;28;20200;-81
2022/11/29 07:52:33;;;;;;;35.13;18.80;;;;;;;7.25;100.00;99184.22;5046141;28;20684;-81
2022/11/29 07:55:03;;;;;;;37.30;18.83;;;;;;;7.20;100.00;99185.38;5050007;28;20228;-81
2022/11/29 07:57:32;;;;;;;44.93;19.97;;;;;;;7.21;100.00;99177.38;5067492;28;20195;-81
2022/11/29 08:00:04;;;;;;;41.97;18.67;;;;;;;7.26;100.00;99182.44;5048151;28;20271;-81
2022/11/29 08:02:32;;;;;;;41.80;19.37;;;;;;;7.26;100.00;99185.06;4953637;28;20196;-82
2022/11/29 08:05:01;;;;;;;44.70;19.73;;;;;;;7.21;100.00;99184.44;4898329;29;20226;-81
2022/11/29 08:07:29;;;;;;;55.43;20.10;;;;;;;7.16;100.00;99182.91;4893706;29;20210;-81
2022/11/29 08:09:58;;;;;;;63.17;21.10;;;;;;;7.14;100.00;99186.50;4898414;29;20199;-81
2022/11/29 08:12:26;;;;;;;45.47;19.57;;;;;;;7.24;100.00;99195.69;4896257;29;20198;-81
2022/11/29 08:14:58;;;;;;;38.67;18.00;;;;;;;7.27;100.00;99197.31;4895173;29;20251;-81
2022/11/29 08:17:30;;;;;;;39.60;15.97;;;;;;;7.31;100.00;99193.56;4909068;28;20667;-81
2022/11/29 08:19:58;;;;;;;55.27;19.33;;;;;;;7.22;100.00;99200.16;4974607;28;20282;-81
2022/11/29 08:22:31;;;;;;;50.70;19.80;;;;;;;7.24;100.00;99197.44;5060495;28;20214;-81
2022/11/29 08:25:00;;;;;;;45.53;19.50;;;;;;;7.26;100.00;99201.72;5092592;28;20192;-81
2022/11/29 08:27:28;;;;;;;49.97;17.70;;;;;;;7.28;100.00;99205.13;5091984;28;20635;-81
2022/11/29 08:29:56;;;;;;;44.33;17.93;;;;;;;7.28;100.00;99206.91;5094444;28;20192;-81
2022/11/29 08:32:25;;;;;;;50.60;18.37;;;;;;;7.20;100.00;99211.69;5095435;28;20188;-81
2022/11/29 08:34:56;;;;;;;52.67;19.67;;;;;;;7.34;100.00;99204.00;5092073;28;20203;-81
2022/11/29 08:37:24;;;;;;;41.37;17.27;;;;;;;7.38;100.00;99209.00;5092849;28;20200;-81
2022/11/29 08:39:57;;;;;;;55.67;19.50;;;;;;;7.40;100.00;99209.78;5095084;28;20222;-81
2022/11/29 08:42:25;;;;;;;46.30;19.60;;;;;;;7.39;100.00;99208.06;5095589;28;20204;-81
2022/11/29 08:44:54;;;;;;;62.53;20.47;;;;;;;7.38;100.00;99211.66;5072463;28;20203;-81
2022/11/29 08:47:39;;;;;;;57.67;20.93;;;;;;;7.43;100.00;99216.66;5097679;27;20245;-81
2022/11/29 08:50:13;;;;;;;42.87;18.40;;;;;;;7.51;100.00;99216.28;5095549;28;20256;-80
2022/11/29 08:55:34;;;;;;;36.03;16.27;;;;;;;7.51;100.00;99218.94;5096824;27;20207;-81
2022/11/29 08:58:05;;;;;;;36.13;16.30;;;;;;;7.41;100.00;99227.28;5093199;28;20207;-81
2022/11/29 09:00:35;;;;;;;37.17;16.33;;;;;;;7.49;100.00;99228.69;5092397;28;20231;-81
2022/11/29 09:05:52;;;;;;;37.23;15.80;;;;;;;7.25;100.00;99226.38;5092851;28;20261;-80
2022/11/29 09:08:21;;;;;;;36.23;16.30;;;;;;;7.35;100.00;99232.88;5090378;28;20210;-80
2022/11/29 09:10:50;;;;;;;35.67;15.80;;;;;;;7.35;100.00;99238.16;5092620;28;20192;-80
2022/11/29 09:13:18;;;;;;;32.30;15.80;;;;;;;7.30;100.00;99242.78;5049398;28;20204;-80
2022/11/29 09:15:47;;;;;;;34.27;16.00;;;;;;;7.12;100.00;99247.16;5052787;28;20193;-80
2022/11/29 09:18:15;;;;;;;30.93;15.77;;;;;;;7.20;100.00;99261.75;5055879;28;20201;-81
2022/11/29 09:20:44;;;;;;;35.43;15.77;;;;;;;7.24;100.00;99255.41;5058115;28;20295;-81
2022/11/29 09:23:16;;;;;;;32.10;15.30;;;;;;;7.43;100.00;99275.53;5051303;28;20312;-81
2022/11/29 09:25:49;;;;;;;35.77;16.07;;;;;;;7.25;100.00;99270.31;5054777;28;20196;-81
2022/11/29 09:28:17;;;;;;;44.43;18.53;;;;;;;7.14;100.00;99271.69;5049202;28;20185;-81
2022/11/29 09:30:46;;;;;;;41.07;19.10;;;;;;;7.07;100.00;99277.31;5060764;28;20192;-81
2022/11/29 09:33:15;;;;;;;44.40;18.80;;;;;;;7.16;100.00;99276.88;5094038;28;20198;-81
2022/11/29 09:35:44;;;;;;;41.93;18.70;;;;;;;7.12;100.00;99278.78;5094101;28;20211;-81
2022/11/29 09:38:15;;;;;;;47.37;18.90;;;;;;;7.09;100.00;99278.94;5091508;28;20200;-81
2022/11/29 09:40:49;;;;;;;37.10;17.97;;;;;;;7.09;100.00;99286.84;5093480;28;20222;-81
2022/11/29 09:43:30;;;;;;;41.87;19.00;;;;;;;7.10;100.00;99285.91;5092676;28;20196;-81
2022/11/29 09:46:06;;;;;;;42.40;18.17;;;;;;;7.23;100.00;99283.53;5093800;28;20191;-81
2022/11/29 09:49:07;;;;;;;44.47;20.00;;;;;;;7.31;100.00;99288.44;5091161;28;20219;-81
2022/11/29 09:51:43;;;;;;;45.27;19.10;;;;;;;7.58;100.00;99286.22;5092068;28;20646;-81
2022/11/29 09:54:25;;;;;;;49.13;20.83;;;;;;;7.60;100.00;99295.75;5094157;28;20237;-81
2022/11/29 09:56:55;;;;;;;44.67;19.57;;;;;;;7.74;100.00;99288.03;5091849;28;20237;-81
2022/11/29 09:59:35;;;;;;;50.00;23.53;;;;;;;7.62;100.00;99287.75;5095038;27;20196;-81
2022/11/29 10:02:07;;;;;;;45.80;20.07;;;;;;;7.78;100.00;99288.72;5093813;28;20226;-81
2022/11/29 10:04:40;;;;;;;55.27;29.20;;;;;;;7.65;100.00;99288.47;5093318;28;20295;-81
2022/11/29 10:07:18;;;;;;;140.93;73.37;;;;;;;7.44;100.00;99290.41;5094808;27;20690;-81
2022/11/29 10:09:54;;;;;;;326.40;158.53;;;;;;;7.38;100.00;99284.56;5095518;27;20225;-81
2022/11/29 10:12:33;;;;;;;40.00;20.17;;;;;;;7.74;100.00;99292.44;5088200;28;20662;-81
2022/11/29 10:15:09;;;;;;;44.60;20.03;;;;;;;7.78;100.00;99291.34;5090248;28;20666;-81
2022/11/29 10:17:44;;;;;;;92.70;55.50;;;;;;;7.64;100.00;99299.97;5091581;28;20232;-81
2022/11/29 10:20:19;;;;;;;44.73;23.33;;;;;;;7.64;100.00;99301.75;5096158;27;20315;-82
2022/11/29 10:22:54;;;;;;;41.10;21.47;;;;;;;7.81;100.00;99293.81;5090980;28;20187;-81
2022/11/29 10:25:29;;;;;;;36.73;18.27;;;;;;;7.93;100.00;99301.13;5095527;27;20199;-81
2022/11/29 10:27:58;;;;;;;69.50;41.77;;;;;;;7.62;100.00;99296.53;5091863;28;20640;-81
2022/11/29 10:30:27;;;;;;;41.10;21.30;;;;;;;7.88;100.00;99303.13;5088025;28;20195;-80
2022/11/29 10:32:58;;;;;;;35.23;17.43;;;;;;;8.02;100.00;99303.31;5091476;28;20198;-80
2022/11/29 10:35:28;;;;;;;34.90;17.63;;;;;;;8.10;100.00;99305.50;5093184;28;20198;-81
2022/11/29 10:38:01;;;;;;;30.70;16.53;;;;;;;8.17;100.00;99300.78;5091013;28;20199;-81
2022/11/29 10:40:57;;;;;;;31.80;17.20;;;;;;;8.14;100.00;99306.22;5092688;28;20215;-81
2022/11/29 10:43:28;;;;;;;32.93;17.17;;;;;;;8.11;100.00;99301.97;5087374;28;20646;-81
2022/11/29 10:45:57;;;;;;;31.33;17.77;;;;;;;8.14;100.00;99307.09;5063617;28;20200;-81
2022/11/29 10:48:31;;;;;;;33.63;18.67;;;;;;;8.16;100.00;99304.38;5068117;28;20207;-81
2022/11/29 10:51:02;;;;;;;28.60;17.90;;;;;;;8.20;100.00;99305.91;5071059;28;20231;-81
2022/11/29 10:53:37;;;;;;;35.50;19.00;;;;;;;8.11;100.00;99299.34;5030376;28;20204;-81
2022/11/29 10:56:15;;;;;;;34.70;18.33;;;;;;;8.07;100.00;99304.84;5028422;28;20189;-81
2022/11/29 10:58:56;;;;;;;31.60;18.70;;;;;;;7.93;100.00;99305.56;5027199;28;20202;-81
2022/11/29 11:01:27;;;;;;;32.30;18.40;;;;;;;8.03;100.00;99305.00;5030638;28;20692;-81
2022/11/29 11:04:03;;;;;;;29.23;18.00;;;;;;;8.01;100.00;99308.66;5044384;28;20207;-81
2022/11/29 11:06:45;;;;;;;27.97;17.60;;;;;;;8.19;100.00;99306.84;5065364;28;20204;-81
2022/11/29 11:09:20;;;;;;;30.13;17.80;;;;;;;8.33;100.00;99296.44;5067782;28;20192;-81
2022/11/29 11:11:55;;;;;;;35.33;19.50;;;;;;;8.26;100.00;99298.53;5067965;28;20203;-81
2022/11/29 11:14:28;;;;;;;34.07;18.13;;;;;;;8.28;100.00;99296.66;5067921;28;20227;-81
2022/11/29 11:17:13;;;;;;;28.07;17.83;;;;;;;8.33;100.00;99296.44;5069446;28;20192;-82
2022/11/29 11:19:43;;;;;;;30.97;18.07;;;;;;;8.39;100.00;99301.41;5093280;28;20196;-82
2022/11/29 11:22:22;;;;;;;28.97;18.80;;;;;;;8.39;100.00;99296.13;5088767;28;20230;-82
2022/11/29 11:24:58;;;;;;;34.03;19.70;;;;;;;8.45;100.00;99302.88;5088875;28;20242;-82
2022/11/29 11:27:35;;;;;;;29.83;18.50;;;;;;;8.45;100.00;99301.09;5095257;28;20276;-81
2022/11/29 11:30:06;;;;;;;31.50;19.60;;;;;;;8.40;100.00;99300.50;5092139;28;20274;-81
2022/11/29 11:32:35;;;;;;;30.77;19.10;;;;;;;8.41;100.00;99302.19;5092551;28;20202;-82
2022/11/29 11:35:22;;;;;;;32.17;19.90;;;;;;;8.47;100.00;99301.00;5073570;28;20219;-81
2022/11/29 11:37:57;;;;;;;31.17;20.57;;;;;;;8.51;100.00;99303.41;5090447;28;20196;-81
2022/11/29 11:40:28;;;;;;;31.87;20.20;;;;;;;8.62;100.00;99301.97;5092383;28;20187;-82
2022/11/29 11:43:01;;;;;;;27.67;19.57;;;;;;;8.60;100.00;99313.47;5091149;28;20223;-81
2022/11/29 11:45:37;;;;;;;33.40;19.23;;;;;;;8.49;100.00;99307.03;5091234;28;20204;-81
2022/11/29 11:48:13;;;;;;;30.73;19.23;;;;;;;8.51;100.00;99318.41;5091083;28;20245;-81
2022/11/29 11:50:50;;;;;;;32.87;19.57;;;;;;;8.52;100.00;99320.94;5091043;28;20204;-81
2022/11/29 11:53:23;;;;;;;33.57;21.27;;;;;;;8.58;100.00;99314.47;5091932;28;20257;-80
2022/11/29 11:56:01;;;;;;;29.07;18.60;;;;;;;8.56;100.00;99311.91;5092086;28;20199;-81
2022/11/29 11:58:34;;;;;;;34.53;19.50;;;;;;;8.58;100.00;99315.31;5091212;28;20236;-81
2022/11/29 12:01:16;;;;;;;30.97;18.37;;;;;;;8.61;100.00;99306.41;5052012;28;20200;-81
2022/11/29 12:03:51;;;;;;;26.20;17.73;;;;;;;8.64;100.00;99308.88;5088106;28;20198;-82
2022/11/29 12:06:35;;;;;;;33.00;18.87;;;;;;;8.68;100.00;99309.56;5081468;28;20203;-81
2022/11/29 12:09:12;;;;;;;29.00;18.27;;;;;;;8.80;100.00;99314.19;5087362;28;20196;-81
2022/11/29 12:11:52;;;;;;;31.23;20.70;;;;;;;8.87;100.00;99310.25;5087307;28;20195;-81